Time;durP1;ratioP1;P1;durP2;ratioP2;P2;SDS_P1;SDS_P2;PMS_P1;PMS_P2;Temp;Humidity;BMP_temperature;BMP_pressure;BME280_temperature;BME280_humidity;BME280_pressure;Samples;Min_cycle;Max_cycle;Signal;HPM_P1;HPM_P2
2022/06/30 00:02:06;;;;;;;7.38;5.35;;;26.60;77.40;;;;;;5136390;27;20047;-71
2022/06/30 00:04:33;;;;;;;10.25;5.30;;;26.80;77.50;;;;;;5153654;27;20414;-71
2022/06/30 00:06:59;;;;;;;6.72;5.32;;;26.50;77.30;;;;;;5154720;27;20421;-72
2022/06/30 00:09:25;;;;;;;8.77;5.22;;;26.50;77.40;;;;;;5136514;27;20047;-69
2022/06/30 00:11:50;;;;;;;6.80;5.40;;;26.70;77.20;;;;;;5136060;27;20039;-72
2022/06/30 00:14:16;;;;;;;7.03;5.15;;;26.80;77.50;;;;;;5154765;27;20039;-71
2022/06/30 00:16:42;;;;;;;6.75;4.90;;;26.60;77.20;;;;;;5133984;27;20100;-67
2022/06/30 00:19:08;;;;;;;6.72;5.00;;;26.50;77.10;;;;;;5153698;27;20043;-71
2022/06/30 00:21:34;;;;;;;7.07;5.30;;;26.40;76.70;;;;;;5135825;27;20049;-72
2022/06/30 00:24:00;;;;;;;8.32;5.05;;;26.70;77.20;;;;;;5136115;27;20460;-71
2022/06/30 00:26:25;;;;;;;8.32;5.03;;;26.50;77.10;;;;;;5134400;27;20049;-70
2022/06/30 00:28:51;;;;;;;7.10;4.50;;;26.70;77.10;;;;;;5153826;27;20145;-69
2022/06/30 00:31:18;;;;;;;6.03;4.82;;;26.40;76.80;;;;;;5154009;27;20039;-67
2022/06/30 00:33:44;;;;;;;6.30;4.18;;;26.30;77.00;;;;;;5136328;27;20054;-72
2022/06/30 00:36:09;;;;;;;5.60;4.57;;;26.30;76.90;;;;;;5154889;27;20476;-72
2022/06/30 00:38:37;;;;;;;6.18;4.43;;;26.40;77.70;;;;;;5135583;27;20448;-71
2022/06/30 00:41:03;;;;;;;5.63;4.57;;;26.30;76.90;;;;;;5152381;27;20054;-63
2022/06/30 00:43:29;;;;;;;6.07;4.85;;;26.60;77.20;;;;;;5154915;27;20039;-73
2022/06/30 00:45:55;;;;;;;10.02;4.60;;;26.60;76.90;;;;;;5118791;27;20131;-71
2022/06/30 00:48:21;;;;;;;7.13;4.65;;;26.60;77.30;;;;;;5136504;27;20503;-72
2022/06/30 00:50:46;;;;;;;6.07;4.40;;;26.40;77.10;;;;;;5089307;27;20780;-69
2022/06/30 00:53:12;;;;;;;5.50;4.13;;;26.40;77.10;;;;;;5154876;27;20049;-70
2022/06/30 00:55:38;;;;;;;6.80;4.60;;;26.10;76.90;;;;;;5154105;27;20472;-70
2022/06/30 00:58:05;;;;;;;6.15;4.45;;;26.50;77.00;;;;;;5136535;27;20046;-72
2022/06/30 01:00:33;;;;;;;6.90;4.43;;;26.10;77.10;;;;;;5116837;27;20043;-72
2022/06/30 01:02:59;;;;;;;7.22;4.80;;;26.10;77.10;;;;;;5134885;27;20042;-71
2022/06/30 01:05:26;;;;;;;6.97;4.53;;;26.50;77.10;;;;;;5135666;27;20126;-68
2022/06/30 01:07:52;;;;;;;7.30;4.38;;;26.20;77.00;;;;;;5135613;27;20102;-67
2022/06/30 01:13:02;;;;;;;8.80;4.55;;;26.30;76.00;;;;;;5129554;27;20398;-69
2022/06/30 01:15:28;;;;;;;7.43;4.40;;;26.30;77.00;;;;;;5134946;27;20109;-72
2022/06/30 01:17:54;;;;;;;7.45;4.50;;;26.10;76.80;;;;;;5154564;27;20046;-71
2022/06/30 01:20:25;;;;;;;6.72;4.47;;;26.40;77.00;;;;;;5153769;27;20039;-71
2022/06/30 01:22:50;;;;;;;6.63;4.20;;;26.30;77.30;;;;;;5117250;27;20447;-69
2022/06/30 01:25:16;;;;;;;8.02;4.20;;;26.30;77.00;;;;;;5152799;27;20081;-68
2022/06/30 01:27:42;;;;;;;5.70;4.07;;;26.40;77.10;;;;;;5134822;27;20115;-71
2022/06/30 01:30:08;;;;;;;7.18;4.00;;;26.30;77.00;;;;;;5135238;27;20042;-71
2022/06/30 01:32:34;;;;;;;6.00;4.32;;;26.20;76.50;;;;;;5153532;27;20118;-72
2022/06/30 01:35:00;;;;;;;5.70;4.05;;;26.30;77.00;;;;;;5153103;27;20082;-71
2022/06/30 01:37:25;;;;;;;7.07;4.28;;;26.30;76.90;;;;;;5135982;27;20046;-71
2022/06/30 01:39:51;;;;;;;6.32;3.97;;;26.00;76.80;;;;;;5154225;27;20039;-68
2022/06/30 01:42:17;;;;;;;5.97;4.00;;;26.30;77.00;;;;;;5158128;27;20070;-71
2022/06/30 01:44:43;;;;;;;6.38;4.30;;;26.40;77.00;;;;;;5137282;27;20125;-72
2022/06/30 01:47:09;;;;;;;7.43;5.07;;;26.50;77.20;;;;;;5157745;27;20042;-71
2022/06/30 01:49:35;;;;;;;8.48;4.20;;;25.90;77.40;;;;;;5138648;27;20180;-65
2022/06/30 01:52:01;;;;;;;5.43;4.25;;;28.30;78.50;;;;;;5157491;27;20079;-69
2022/06/30 01:54:26;;;;;;;5.25;3.75;;;26.10;76.90;;;;;;5136298;27;20112;-68
2022/06/30 01:56:52;;;;;;;6.13;4.13;;;26.00;76.70;;;;;;5139174;27;20161;-69
2022/06/30 01:59:18;;;;;;;5.47;4.20;;;26.10;76.90;;;;;;5138561;27;20129;-68
2022/06/30 02:01:43;;;;;;;6.55;4.07;;;26.20;76.90;;;;;;5136424;27;20369;-69
2022/06/30 02:06:53;;;;;;;8.68;4.32;;;26.00;75.70;;;;;;5137024;27;20152;-72
2022/06/30 02:09:19;;;;;;;6.47;4.38;;;26.20;76.90;;;;;;5138007;27;20122;-71
2022/06/30 02:11:45;;;;;;;6.57;3.95;;;26.20;76.70;;;;;;5157599;27;20121;-72
2022/06/30 02:14:10;;;;;;;6.40;3.70;;;26.00;76.70;;;;;;5138804;27;20117;-72
2022/06/30 02:16:36;;;;;;;7.35;4.00;;;25.90;76.50;;;;;;5154675;27;20113;-67
2022/06/30 02:19:02;;;;;;;5.40;3.90;;;26.00;80.00;;;;;;5135187;27;20382;-71
2022/06/30 02:21:28;;;;;;;7.68;4.35;;;26.20;76.70;;;;;;5131821;27;20071;-71
2022/06/30 02:23:54;;;;;;;5.82;3.90;;;26.10;76.70;;;;;;5133808;27;20124;-71
2022/06/30 02:26:20;;;;;;;5.80;4.03;;;26.10;76.60;;;;;;5119099;27;20036;-65
2022/06/30 02:28:46;;;;;;;6.75;4.35;;;26.10;76.90;;;;;;5110961;28;20456;-71
2022/06/30 02:31:12;;;;;;;5.25;3.70;;;26.20;76.50;;;;;;5126398;27;20078;-70
2022/06/30 02:33:39;;;;;;;5.78;4.03;;;25.70;76.20;;;;;;5123198;27;20036;-72
2022/06/30 02:36:05;;;;;;;8.30;3.95;;;25.80;76.50;;;;;;5127733;27;20100;-68
2022/06/30 02:38:31;;;;;;;5.43;3.63;;;26.10;76.80;;;;;;5116040;27;20096;-68
2022/06/30 02:40:57;;;;;;;6.82;4.05;;;25.80;76.40;;;;;;5120600;27;20437;-71
2022/06/30 02:43:23;;;;;;;8.43;4.18;;;26.10;76.50;;;;;;5132380;27;20062;-69
2022/06/30 02:45:48;;;;;;;4.85;3.53;;;26.00;76.60;;;;;;5095924;27;20477;-71
2022/06/30 02:48:15;;;;;;;7.07;3.90;;;25.80;76.30;;;;;;5123954;27;20047;-71
2022/06/30 02:50:41;;;;;;;5.32;3.70;;;25.90;79.60;;;;;;5130664;27;20397;-63
2022/06/30 02:53:07;;;;;;;6.30;3.85;;;25.50;76.10;;;;;;5131675;27;20039;-68
2022/06/30 02:55:32;;;;;;;5.55;3.45;;;25.70;76.40;;;;;;5133286;27;20480;-65
2022/06/30 02:57:58;;;;;;;6.32;4.10;;;26.00;76.50;;;;;;5124400;27;20040;-72
2022/06/30 03:00:24;;;;;;;8.77;4.60;;;26.10;76.80;;;;;;5126956;27;20099;-71
2022/06/30 03:02:49;;;;;;;6.85;3.45;;;25.80;76.30;;;;;;5131922;27;20472;-72
2022/06/30 03:05:15;;;;;;;5.85;3.72;;;25.90;76.60;;;;;;5135259;27;20042;-72
2022/06/30 03:07:41;;;;;;;8.82;4.00;;;26.00;76.50;;;;;;5133043;27;20099;-70
2022/06/30 03:10:07;;;;;;;5.05;3.83;;;25.90;76.60;;;;;;5108438;27;20038;-72
2022/06/30 03:12:33;;;;;;;5.80;3.50;;;26.00;75.90;;;;;;5134716;27;20054;-70
2022/06/30 03:14:58;;;;;;;6.25;3.70;;;26.00;79.70;;;;;;5129481;27;20039;-71
2022/06/30 03:17:25;;;;;;;6.45;3.72;;;25.80;76.40;;;;;;5131423;27;20103;-71
2022/06/30 03:19:50;;;;;;;5.30;3.28;;;26.00;76.60;;;;;;5102545;27;20066;-71
2022/06/30 03:22:16;;;;;;;5.18;3.28;;;25.90;76.20;;;;;;5134137;27;20038;-62
2022/06/30 03:24:42;;;;;;;5.78;3.30;;;25.80;76.30;;;;;;5133795;27;20070;-66
2022/06/30 03:27:07;;;;;;;4.43;3.13;;;26.00;76.30;;;;;;5133846;27;20032;-69
2022/06/30 03:29:33;;;;;;;6.20;3.72;;;25.80;79.20;;;;;;5134834;27;20042;-70
2022/06/30 03:31:59;;;;;;;5.78;3.63;;;25.70;76.20;;;;;;5136039;27;20112;-72
2022/06/30 03:34:25;;;;;;;5.47;3.55;;;25.70;79.30;;;;;;5133472;27;20047;-71
2022/06/30 03:36:51;;;;;;;5.18;3.55;;;25.80;76.20;;;;;;5132253;27;20404;-72
2022/06/30 03:39:16;;;;;;;5.47;3.20;;;25.70;76.30;;;;;;5133042;27;20043;-64
2022/06/30 03:41:42;;;;;;;6.15;3.33;;;26.00;76.30;;;;;;5132349;27;20519;-70
2022/06/30 03:44:08;;;;;;;6.85;4.03;;;25.90;76.40;;;;;;5134947;27;20039;-72
2022/06/30 03:46:33;;;;;;;5.78;3.22;;;25.80;76.00;;;;;;5132104;27;20391;-71
2022/06/30 03:48:59;;;;;;;4.93;3.33;;;26.00;76.40;;;;;;5135708;27;20043;-71
2022/06/30 03:51:25;;;;;;;4.78;3.30;;;25.90;79.30;;;;;;5132183;27;20046;-67
2022/06/30 03:53:54;;;;;;;5.80;3.60;;;25.70;76.20;;;;;;5134461;27;20080;-71
2022/06/30 03:56:20;;;;;;;5.18;3.20;;;25.90;76.20;;;;;;5134129;27;20043;-72
2022/06/30 03:58:46;;;;;;;4.90;3.05;;;25.90;76.30;;;;;;5134132;27;20035;-66
2022/06/30 04:01:11;;;;;;;4.88;3.20;;;25.80;75.90;;;;;;5133675;27;20036;-65
2022/06/30 04:03:37;;;;;;;4.85;3.03;;;27.90;77.60;;;;;;5132266;27;20046;-71
2022/06/30 04:06:03;;;;;;;6.68;3.22;;;25.70;75.70;;;;;;5134772;27;20047;-72
2022/06/30 04:08:28;;;;;;;4.65;3.20;;;25.90;76.00;;;;;;5135068;27;20523;-71
2022/06/30 04:10:54;;;;;;;5.47;3.20;;;25.80;75.80;;;;;;5133600;27;20046;-72
2022/06/30 04:13:20;;;;;;;7.05;3.20;;;25.90;76.00;;;;;;5131312;27;20055;-71
2022/06/30 04:15:46;;;;;;;5.80;3.30;;;26.00;76.00;;;;;;5133539;27;20039;-72
2022/06/30 04:18:12;;;;;;;6.00;3.38;;;25.70;75.80;;;;;;5136898;27;20074;-69
2022/06/30 04:20:38;;;;;;;5.20;3.10;;;26.00;76.00;;;;;;5154806;27;20099;-68
2022/06/30 04:23:03;;;;;;;5.85;3.35;;;25.80;75.60;;;;;;5151604;27;20031;-72
2022/06/30 04:25:29;;;;;;;5.40;3.40;;;26.00;79.20;;;;;;5134456;27;20429;-71
2022/06/30 04:27:58;;;;;;;5.68;3.00;;;25.70;75.50;;;;;;5136025;27;20103;-71
2022/06/30 04:33:08;;;;;;;5.65;3.30;;;26.10;78.90;;;;;;5139193;27;20102;-65
2022/06/30 04:35:34;;;;;;;4.97;3.20;;;25.90;75.60;;;;;;5132140;27;20486;-71
2022/06/30 04:38:00;;;;;;;5.85;3.28;;;25.80;75.60;;;;;;5129526;27;20050;-71
2022/06/30 04:43:10;;;;;;;5.20;3.00;;;26.10;74.60;;;;;;5137291;27;20046;-71
2022/06/30 04:45:36;;;;;;;7.30;3.45;;;26.40;75.80;;;;;;5132995;27;20484;-72
2022/06/30 04:48:02;;;;;;;5.15;3.40;;;25.80;75.20;;;;;;5154614;27;20049;-69
2022/06/30 04:50:28;;;;;;;6.22;3.50;;;26.00;76.00;;;;;;5154721;27;20060;-71
2022/06/30 04:52:54;;;;;;;5.45;3.05;;;26.00;75.50;;;;;;5154625;27;20046;-71
2022/06/30 04:55:20;;;;;;;5.35;3.10;;;25.90;75.50;;;;;;5154038;27;20035;-70
2022/06/30 04:57:46;;;;;;;8.20;3.20;;;25.80;75.30;;;;;;5155356;27;20042;-72
2022/06/30 05:00:12;;;;;;;5.90;3.50;;;25.70;75.40;;;;;;5134082;27;20042;-68
2022/06/30 05:02:37;;;;;;;6.50;3.50;;;26.00;75.10;;;;;;5135589;27;20050;-68
2022/06/30 05:05:04;;;;;;;6.07;3.15;;;26.00;75.50;;;;;;5153182;27;20094;-72
2022/06/30 05:07:29;;;;;;;5.25;3.10;;;26.00;74.90;;;;;;5134690;27;20141;-73
2022/06/30 05:09:55;;;;;;;7.32;3.42;;;26.40;75.30;;;;;;5134853;27;20555;-72
2022/06/30 05:12:21;;;;;;;5.60;2.95;;;26.50;75.00;;;;;;5154592;27;20038;-68
2022/06/30 05:14:46;;;;;;;5.65;3.03;;;26.80;75.10;;;;;;5154050;27;20475;-71
2022/06/30 05:17:12;;;;;;;4.65;2.88;;;26.80;74.70;;;;;;5138377;27;20042;-64
2022/06/30 05:19:38;;;;;;;6.90;2.80;;;27.10;74.50;;;;;;5156291;27;20494;-68
2022/06/30 05:22:04;;;;;;;4.55;2.97;;;27.00;73.80;;;;;;5138876;27;20042;-72
2022/06/30 05:27:14;;;;;;;5.13;3.47;;;27.20;72.50;;;;;;5156889;27;20455;-72
2022/06/30 05:29:40;;;;;;;4.53;2.75;;;27.40;73.40;;;;;;5139359;27;20125;-74
2022/06/30 05:32:06;;;;;;;4.93;3.00;;;27.70;73.20;;;;;;5140510;27;20126;-72
2022/06/30 05:34:32;;;;;;;5.00;3.10;;;27.70;72.90;;;;;;5155248;27;20050;-72
2022/06/30 05:36:58;;;;;;;5.28;3.10;;;27.60;72.80;;;;;;5157394;27;20034;-73
2022/06/30 05:39:24;;;;;;;4.55;2.83;;;28.00;73.00;;;;;;5138812;27;20039;-72
2022/06/30 05:41:49;;;;;;;5.10;3.10;;;27.90;71.80;;;;;;5158924;27;20121;-71
2022/06/30 05:44:15;;;;;;;5.88;3.33;;;28.00;72.40;;;;;;5157984;27;20634;-73
2022/06/30 05:46:41;;;;;;;5.55;3.38;;;28.00;72.20;;;;;;5157484;27;20043;-71
2022/06/30 05:49:08;;;;;;;4.43;3.28;;;28.20;72.30;;;;;;5136698;27;20498;-66
2022/06/30 05:51:34;;;;;;;4.97;3.33;;;28.00;71.90;;;;;;5138700;27;20433;-72
2022/06/30 05:54:00;;;;;;;4.50;3.00;;;27.90;71.70;;;;;;5122099;27;20050;-67
2022/06/30 05:56:25;;;;;;;5.05;3.08;;;27.90;71.70;;;;;;5157634;27;20077;-72
2022/06/30 05:58:51;;;;;;;6.13;3.25;;;28.10;72.00;;;;;;5137615;27;20047;-66
2022/06/30 06:01:18;;;;;;;5.57;3.38;;;27.90;71.70;;;;;;5157050;27;20381;-72
2022/06/30 06:03:44;;;;;;;5.38;3.40;;;28.30;71.90;;;;;;5157775;27;20074;-71
2022/06/30 06:06:10;;;;;;;5.25;3.15;;;28.30;71.30;;;;;;5139180;27;20031;-71
2022/06/30 06:08:35;;;;;;;5.05;3.05;;;28.70;71.70;;;;;;5157362;27;20042;-69
2022/06/30 06:11:01;;;;;;;5.05;3.10;;;28.70;71.30;;;;;;5138428;27;20046;-67
2022/06/30 06:13:27;;;;;;;5.82;3.10;;;28.50;71.20;;;;;;5157222;27;20488;-72
2022/06/30 06:15:53;;;;;;;5.00;3.20;;;28.50;71.20;;;;;;5136977;27;20096;-65
2022/06/30 06:18:19;;;;;;;4.93;2.90;;;28.40;70.40;;;;;;5139043;27;20062;-71
2022/06/30 06:20:45;;;;;;;7.05;3.38;;;28.70;70.90;;;;;;5155635;27;20038;-71
2022/06/30 06:23:11;;;;;;;5.00;3.15;;;28.60;70.70;;;;;;5157338;27;20030;-72
2022/06/30 06:25:36;;;;;;;5.70;3.10;;;28.50;70.60;;;;;;5156621;27;20042;-72
2022/06/30 06:30:47;;;;;;;5.13;3.20;;;28.80;69.70;;;;;;5138783;27;20492;-72
2022/06/30 06:33:13;;;;;;;4.65;3.00;;;28.90;70.30;;;;;;5122361;27;20062;-71
2022/06/30 06:35:39;;;;;;;5.38;2.92;;;28.90;69.90;;;;;;5135086;27;20039;-70
2022/06/30 06:38:04;;;;;;;5.72;3.08;;;28.70;69.80;;;;;;5136173;27;20503;-72
2022/06/30 06:40:30;;;;;;;4.70;2.92;;;28.90;70.40;;;;;;5126419;27;20037;-72
2022/06/30 06:42:56;;;;;;;5.88;3.20;;;29.00;71.00;;;;;;5155447;27;20043;-73
2022/06/30 06:45:21;;;;;;;4.60;3.17;;;28.90;70.30;;;;;;5138352;27;20047;-69
2022/06/30 06:47:47;;;;;;;6.20;3.08;;;29.20;70.50;;;;;;5136052;27;20150;-73
2022/06/30 06:50:13;;;;;;;5.70;2.95;;;28.80;70.10;;;;;;5141679;27;20043;-63
2022/06/30 06:52:39;;;;;;;8.02;3.95;;;28.80;70.00;;;;;;5115748;27;20051;-63
2022/06/30 06:55:05;;;;;;;5.97;3.92;;;28.80;70.10;;;;;;5117973;27;20126;-63
2022/06/30 06:57:35;;;;;;;10.82;4.97;;;28.80;69.80;;;;;;5135298;27;20103;-63
2022/06/30 07:00:03;;;;;;;10.38;4.95;;;28.70;70.60;;;;;;5115173;27;20079;-62
2022/06/30 07:02:29;;;;;;;6.50;4.70;;;28.80;70.70;;;;;;5157679;27;20091;-63
2022/06/30 07:04:56;;;;;;;6.43;4.38;;;28.60;70.70;;;;;;5138088;27;20039;-74
2022/06/30 07:07:23;;;;;;;7.72;4.80;;;28.60;70.20;;;;;;5118895;27;20492;-64
2022/06/30 07:09:49;;;;;;;6.30;3.90;;;28.20;69.60;;;;;;5137970;27;20054;-70
2022/06/30 07:12:16;;;;;;;7.18;4.75;;;28.40;70.50;;;;;;5137731;27;20166;-75
2022/06/30 07:14:47;;;;;;;8.27;4.55;;;28.40;70.50;;;;;;5132291;27;20082;-70
2022/06/30 07:17:13;;;;;;;9.70;4.70;;;28.20;70.30;;;;;;5126721;27;20381;-75
2022/06/30 07:19:40;;;;;;;9.13;4.90;;;28.50;70.80;;;;;;5154482;27;20062;-73
2022/06/30 07:22:09;;;;;;;7.38;4.78;;;28.60;70.50;;;;;;5155695;27;20074;-73
2022/06/30 07:24:38;;;;;;;10.73;5.38;;;28.30;69.90;;;;;;5156595;27;20381;-75
2022/06/30 07:27:04;;;;;;;11.68;5.50;;;28.50;70.00;;;;;;5135668;27;20054;-63
2022/06/30 07:29:30;;;;;;;9.55;5.97;;;28.50;70.70;;;;;;5156604;27;20034;-62
2022/06/30 07:31:57;;;;;;;9.02;5.75;;;28.50;70.70;;;;;;5156545;27;20034;-66
2022/06/30 07:34:23;;;;;;;10.52;5.13;;;28.50;71.00;;;;;;5156321;27;20042;-62
2022/06/30 07:36:48;;;;;;;6.80;5.20;;;28.30;71.40;;;;;;5135668;27;20046;-63
2022/06/30 07:39:14;;;;;;;7.80;4.97;;;28.50;71.70;;;;;;5154306;27;20515;-62
2022/06/30 07:41:40;;;;;;;7.53;4.85;;;28.30;71.30;;;;;;5150159;27;20058;-68
2022/06/30 07:44:06;;;;;;;7.28;4.78;;;28.60;71.70;;;;;;5120893;27;20046;-64
2022/06/30 07:46:32;;;;;;;9.65;5.15;;;28.30;70.80;;;;;;5135950;27;20046;-62
2022/06/30 07:48:58;;;;;;;7.07;5.43;;;28.50;71.30;;;;;;5154797;27;20404;-62
2022/06/30 07:51:24;;;;;;;8.32;4.95;;;28.60;70.90;;;;;;5156008;27;20091;-62
2022/06/30 07:53:50;;;;;;;6.35;5.05;;;29.10;71.80;;;;;;5156118;27;20038;-62
2022/06/30 07:56:16;;;;;;;8.93;5.93;;;29.20;71.50;;;;;;5155224;27;20114;-62
2022/06/30 07:58:41;;;;;;;7.80;5.53;;;28.90;71.30;;;;;;5134583;27;20046;-63
2022/06/30 08:01:07;;;;;;;10.10;6.25;;;29.30;71.00;;;;;;5156820;27;20039;-62
2022/06/30 08:03:33;;;;;;;9.48;6.70;;;29.10;71.40;;;;;;5137781;27;20043;-63
2022/06/30 08:05:59;;;;;;;10.60;6.93;;;29.00;71.50;;;;;;5156226;27;20123;-63
2022/06/30 08:08:25;;;;;;;7.38;5.93;;;29.30;71.40;;;;;;5155779;27;20424;-76
2022/06/30 08:10:50;;;;;;;8.32;6.00;;;29.30;71.50;;;;;;5154110;27;20168;-74
2022/06/30 08:13:16;;;;;;;9.55;7.13;;;29.50;71.70;;;;;;5156090;27;20061;-66
2022/06/30 08:15:42;;;;;;;7.30;6.30;;;29.40;71.80;;;;;;5155073;27;20484;-75
2022/06/30 08:18:08;;;;;;;8.75;6.47;;;29.30;71.80;;;;;;5116212;27;20046;-75
2022/06/30 08:20:34;;;;;;;9.95;6.88;;;29.50;71.70;;;;;;5097925;27;20130;-75
2022/06/30 08:23:00;;;;;;;9.13;6.45;;;29.50;71.80;;;;;;5117863;27;20043;-73
2022/06/30 08:25:25;;;;;;;8.18;6.78;;;29.50;72.00;;;;;;5134275;27;20131;-75
2022/06/30 08:27:51;;;;;;;10.27;7.03;;;29.50;71.70;;;;;;5155724;27;20407;-75
2022/06/30 08:30:17;;;;;;;8.18;6.88;;;29.50;72.00;;;;;;5136382;27;20043;-74
2022/06/30 08:32:43;;;;;;;8.68;6.97;;;29.40;71.70;;;;;;5154246;27;20047;-74
2022/06/30 08:35:08;;;;;;;10.80;8.65;;;29.70;71.90;;;;;;5126965;27;20043;-74
2022/06/30 08:37:35;;;;;;;11.13;8.85;;;29.80;71.80;;;;;;5151261;27;20049;-73
2022/06/30 08:42:44;;;;;;;11.18;8.48;;;29.70;71.20;;;;;;5134509;27;20123;-73
2022/06/30 08:45:13;;;;;;;8.57;7.68;;;29.40;71.80;;;;;;5119993;27;20078;-74
2022/06/30 08:47:39;;;;;;;10.43;8.50;;;29.40;70.70;;;;;;5136548;27;20038;-74
2022/06/30 08:50:08;;;;;;;12.02;7.88;;;29.70;72.30;;;;;;5135443;27;20387;-74
2022/06/30 08:52:36;;;;;;;10.55;8.38;;;29.50;71.80;;;;;;5135289;27;20043;-74
2022/06/30 08:55:01;;;;;;;10.32;8.73;;;29.50;72.10;;;;;;5102930;27;20125;-74
2022/06/30 08:57:27;;;;;;;10.38;8.50;;;29.50;71.70;;;;;;5119488;27;20146;-74
2022/06/30 08:59:53;;;;;;;12.27;8.60;;;29.60;71.90;;;;;;5102567;27;20047;-74
2022/06/30 09:02:19;;;;;;;15.50;9.02;;;29.80;72.10;;;;;;5132861;27;20041;-75
2022/06/30 09:04:45;;;;;;;16.27;8.88;;;29.60;72.00;;;;;;5136757;27;20045;-74
2022/06/30 09:07:11;;;;;;;17.52;9.73;;;29.60;71.90;;;;;;5148931;27;20126;-74
2022/06/30 09:09:38;;;;;;;15.15;9.95;;;29.80;72.10;;;;;;5154952;27;20484;-74
2022/06/30 09:12:04;;;;;;;13.23;9.70;;;29.90;72.20;;;;;;5153684;27;20042;-74
2022/06/30 09:14:37;;;;;;;15.65;10.13;;;29.70;71.60;;;;;;5117816;27;20415;-73
2022/06/30 09:17:05;;;;;;;13.82;9.77;;;29.90;72.90;;;;;;5154927;27;20094;-73
2022/06/30 09:19:31;;;;;;;13.77;9.15;;;30.00;72.70;;;;;;5090272;28;20122;-74
2022/06/30 09:22:04;;;;;;;11.05;9.90;;;29.80;72.00;;;;;;5135356;27;20130;-72
2022/06/30 09:24:30;;;;;;;12.98;10.35;;;29.70;72.60;;;;;;5136081;27;20486;-73
2022/06/30 09:27:11;;;;;;;18.67;10.40;;;29.80;72.30;;;;;;5136500;27;20094;-74
2022/06/30 09:29:59;;;;;;;13.40;9.95;;;29.80;71.30;;;;;;5119110;27;20050;-73
2022/06/30 09:32:25;;;;;;;19.00;10.15;;;29.80;73.10;;;;;;5135345;27;20046;-67
2022/06/30 09:34:51;;;;;;;13.43;10.10;;;29.70;72.20;;;;;;5116863;27;20537;-74
2022/06/30 09:37:21;;;;;;;13.93;8.75;;;29.80;72.50;;;;;;5136477;27;20413;-74
2022/06/30 09:39:47;;;;;;;17.58;10.43;;;29.80;72.70;;;;;;5134752;27;20123;-75
2022/06/30 09:42:13;;;;;;;12.45;9.57;;;29.80;72.60;;;;;;5136226;27;20051;-72
2022/06/30 09:44:39;;;;;;;11.38;9.18;;;29.90;72.30;;;;;;5134526;27;20134;-74
2022/06/30 09:47:12;;;;;;;12.73;9.40;;;30.20;72.40;;;;;;5115873;28;20126;-73
2022/06/30 09:49:40;;;;;;;14.40;8.98;;;29.70;71.10;;;;;;5146913;27;20057;-74
2022/06/30 09:52:22;;;;;;;12.20;9.20;;;29.80;72.80;;;;;;5102343;27;20069;-72
2022/06/30 09:55:01;;;;;;;;;;;29.70;73.10;;;;;;5136282;27;20494;-73
2022/06/30 09:57:28;;;;;;;9.98;8.20;;;29.90;71.80;;;;;;5135345;27;20265;-74
2022/06/30 10:00:26;;;;;;;13.45;9.05;;;30.10;73.10;;;;;;5133267;27;20050;-73
2022/06/30 10:02:52;;;;;;;9.88;8.55;;;29.80;73.00;;;;;;5074279;28;20053;-73
2022/06/30 10:05:18;;;;;;;11.20;7.97;;;29.90;72.70;;;;;;5056113;28;20486;-73
2022/06/30 10:07:45;;;;;;;10.00;8.05;;;30.00;72.60;;;;;;5055875;28;20049;-69
2022/06/30 10:10:13;;;;;;;11.35;7.90;;;29.80;72.60;;;;;;5055980;28;20113;-73
2022/06/30 10:12:40;;;;;;;9.18;7.50;;;30.00;72.90;;;;;;5057699;28;20052;-71
2022/06/30 10:15:07;;;;;;;9.15;7.30;;;29.70;72.40;;;;;;5041105;28;20079;-73
2022/06/30 10:17:40;;;;;;;9.60;7.68;;;29.70;72.20;;;;;;5054183;28;20041;-72
2022/06/30 10:20:07;;;;;;;11.40;7.80;;;30.10;72.90;;;;;;5056496;28;20061;-66
2022/06/30 10:22:32;;;;;;;9.75;7.35;;;29.80;71.60;;;;;;5055834;28;20044;-76
2022/06/30 10:24:58;;;;;;;12.07;7.78;;;29.80;72.30;;;;;;5023973;28;20517;-73
2022/06/30 10:27:26;;;;;;;9.00;6.82;;;29.60;72.10;;;;;;5034809;28;20044;-74
2022/06/30 10:29:56;;;;;;;8.70;7.03;;;29.70;72.70;;;;;;5073826;28;20057;-69
2022/06/30 10:32:45;;;;;;;10.90;7.18;;;29.80;71.20;;;;;;5055701;28;20122;-73
2022/06/30 10:35:22;;;;;;;9.15;7.93;;;30.00;71.60;;;;;;5059582;28;20045;-73
2022/06/30 10:38:06;;;;;;;11.90;7.85;;;29.80;71.10;;;;;;5051466;28;20058;-63
2022/06/30 10:41:04;;;;;;;8.65;7.10;;;29.60;71.30;;;;;;5126699;27;20059;-63
2022/06/30 10:43:30;;;;;;;10.15;7.63;;;29.80;71.10;;;;;;5019399;28;20118;-63
2022/06/30 10:45:56;;;;;;;10.73;8.00;;;29.70;72.20;;;;;;5053313;28;20057;-63
2022/06/30 10:48:22;;;;;;;9.18;8.15;;;29.70;72.70;;;;;;5036204;28;20488;-63
2022/06/30 10:50:49;;;;;;;8.75;7.80;;;29.70;72.70;;;;;;5053469;28;20166;-63
2022/06/30 10:53:17;;;;;;;8.93;7.35;;;29.70;72.70;;;;;;5035649;28;20056;-63
2022/06/30 10:55:52;;;;;;;10.32;7.68;;;29.70;73.10;;;;;;5036266;28;20191;-62
2022/06/30 10:58:19;;;;;;;9.63;8.32;;;29.80;73.30;;;;;;5036353;28;20444;-63
2022/06/30 11:00:59;;;;;;;12.93;8.68;;;30.00;73.40;;;;;;5040523;28;20131;-63
2022/06/30 11:03:34;;;;;;;13.77;8.60;;;30.10;74.10;;;;;;5050433;28;20044;-63
2022/06/30 11:06:02;;;;;;;11.75;9.05;;;29.80;72.40;;;;;;5053228;28;20045;-62
2022/06/30 11:08:38;;;;;;;11.43;8.80;;;29.80;73.30;;;;;;5053642;28;20114;-63
2022/06/30 11:11:22;;;;;;;12.05;9.05;;;29.80;73.30;;;;;;5052493;28;20387;-62
2022/06/30 11:14:00;;;;;;;14.75;9.75;;;29.90;73.30;;;;;;5051949;28;20095;-63
2022/06/30 11:16:26;;;;;;;11.80;8.75;;;30.00;71.90;;;;;;5034039;28;20132;-62
2022/06/30 11:18:51;;;;;;;9.93;8.07;;;29.80;72.70;;;;;;5079893;27;20138;-63
2022/06/30 11:21:17;;;;;;;11.88;8.45;;;29.90;72.60;;;;;;5101639;27;20039;-62
2022/06/30 11:23:44;;;;;;;13.60;8.63;;;29.90;72.40;;;;;;5121041;27;20047;-63
2022/06/30 11:29:01;;;;;;;12.18;8.82;;;29.90;72.90;;;;;;5120653;27;20061;-63
2022/06/30 11:31:32;;;;;;;10.27;7.95;;;30.00;72.80;;;;;;5146419;27;20030;-63
2022/06/30 11:34:08;;;;;;;8.60;7.28;;;30.00;73.10;;;;;;5138300;27;20399;-63
2022/06/30 11:36:35;;;;;;;10.13;8.68;;;30.00;73.30;;;;;;5132275;27;20456;-62
2022/06/30 11:39:02;;;;;;;10.68;8.32;;;29.90;72.90;;;;;;5116294;27;20051;-64
2022/06/30 11:44:14;;;;;;;9.68;7.90;;;30.00;73.10;;;;;;5115142;27;20043;-63
2022/06/30 11:46:47;;;;;;;12.82;8.82;;;30.20;73.00;;;;;;5156477;27;20046;-63
2022/06/30 11:49:13;;;;;;;10.60;8.20;;;30.20;73.60;;;;;;5120615;27;20050;-63
2022/06/30 11:51:39;;;;;;;11.55;7.90;;;30.00;73.00;;;;;;5135995;27;20038;-63
2022/06/30 11:54:05;;;;;;;8.15;7.30;;;30.00;72.80;;;;;;5114071;27;20039;-63
2022/06/30 11:56:55;;;;;;;9.80;8.00;;;29.80;72.50;;;;;;5099631;27;20040;-63
2022/06/30 11:59:21;;;;;;;9.93;8.73;;;30.10;73.00;;;;;;5030304;28;20046;-63
2022/06/30 12:02:19;;;;;;;9.38;8.30;;;29.90;72.30;;;;;;5041262;28;20053;-63
2022/06/30 12:04:48;;;;;;;9.80;8.48;;;30.00;72.40;;;;;;5030942;28;20072;-64
2022/06/30 12:07:14;;;;;;;10.73;8.40;;;30.10;72.40;;;;;;5014986;28;20423;-63
2022/06/30 12:09:42;;;;;;;11.88;8.82;;;29.90;71.90;;;;;;5030539;28;20061;-63
2022/06/30 12:12:08;;;;;;;11.48;9.00;;;30.00;72.60;;;;;;5031064;28;20045;-63
2022/06/30 12:14:37;;;;;;;14.05;8.70;;;29.90;71.90;;;;;;5015323;28;20080;-62
2022/06/30 12:17:07;;;;;;;9.63;8.10;;;30.20;72.80;;;;;;5014172;28;20053;-62
2022/06/30 12:19:33;;;;;;;8.52;7.60;;;30.00;71.20;;;;;;5031099;28;20053;-62
2022/06/30 12:21:59;;;;;;;8.60;6.63;;;30.00;72.50;;;;;;5031770;28;20084;-63
2022/06/30 12:24:25;;;;;;;11.05;7.40;;;30.10;72.60;;;;;;5015040;28;20148;-63
2022/06/30 12:26:58;;;;;;;8.15;6.47;;;30.00;72.60;;;;;;4998232;28;20057;-64
2022/06/30 12:29:25;;;;;;;14.13;7.32;;;29.90;73.10;;;;;;5031642;28;20523;-63
2022/06/30 12:32:00;;;;;;;8.82;7.07;;;30.10;73.20;;;;;;5031671;28;20054;-64
2022/06/30 12:34:26;;;;;;;9.85;6.85;;;30.10;71.80;;;;;;5031716;28;20059;-64
2022/06/30 12:36:58;;;;;;;12.88;6.82;;;29.90;72.90;;;;;;5058528;28;20056;-63
2022/06/30 12:39:23;;;;;;;9.00;6.25;;;30.10;71.60;;;;;;5064360;27;20493;-63
2022/06/30 12:41:49;;;;;;;8.73;6.43;;;30.10;72.80;;;;;;5155373;27;20047;-63
2022/06/30 12:44:15;;;;;;;9.95;6.82;;;29.90;72.70;;;;;;5103012;27;20074;-63
2022/06/30 12:46:42;;;;;;;10.15;6.50;;;30.20;72.90;;;;;;5130442;27;20053;-63
2022/06/30 12:49:22;;;;;;;7.47;6.22;;;30.00;73.00;;;;;;5119593;27;20058;-63
2022/06/30 12:51:48;;;;;;;7.10;6.07;;;30.00;72.00;;;;;;5137010;27;20039;-63
2022/06/30 12:54:18;;;;;;;9.40;6.32;;;30.30;73.30;;;;;;5137009;27;20444;-63
2022/06/30 12:56:50;;;;;;;7.35;5.82;;;30.20;73.50;;;;;;5154342;27;20039;-63
2022/06/30 12:59:20;;;;;;;8.07;5.85;;;30.00;72.00;;;;;;5136817;27;20055;-63
2022/06/30 13:02:06;;;;;;;8.43;6.43;;;30.00;71.80;;;;;;5136300;27;20046;-63
2022/06/30 13:04:32;;;;;;;8.18;6.10;;;30.10;73.40;;;;;;5136082;27;20514;-63
2022/06/30 13:06:59;;;;;;;7.45;6.05;;;30.00;73.30;;;;;;5114003;28;20043;-63
2022/06/30 13:09:28;;;;;;;8.73;6.03;;;29.90;73.40;;;;;;5115808;28;20075;-63
2022/06/30 13:11:56;;;;;;;7.80;6.22;;;30.00;73.60;;;;;;5099254;28;20424;-63